Time;durP1;ratioP1;P1;durP2;ratioP2;P2;SDS_P1;SDS_P2;PMS_P1;PMS_P2;Temp;Humidity;BMP_temperature;BMP_pressure;BME280_temperature;BME280_humidity;BME280_pressure;Samples;Min_cycle;Max_cycle;Signal;HPM_P1;HPM_P2
2021/01/29 00:00:20;;;;;;;0.68;0.60;;;7.20;99.90;;;;;;5010380;28;20109;-73
2021/01/29 00:02:45;;;;;;;0.85;0.50;;;7.20;99.90;;;;;;5010660;28;20432;-73
2021/01/29 00:05:12;;;;;;;0.85;0.57;;;7.20;99.90;;;;;;4992575;28;20025;-73
2021/01/29 00:07:39;;;;;;;0.47;0.47;;;7.20;99.90;;;;;;5010554;28;20481;-73
2021/01/29 00:10:06;;;;;;;0.50;0.50;;;7.20;99.90;;;;;;5010308;28;20029;-74
2021/01/29 00:12:31;;;;;;;2.60;0.52;;;7.20;99.90;;;;;;5010555;28;20516;-74
2021/01/29 00:14:57;;;;;;;0.40;0.40;;;7.20;99.90;;;;;;4992340;28;20026;-73
2021/01/29 00:17:23;;;;;;;0.40;0.40;;;7.20;99.90;;;;;;5010510;28;20034;-74
2021/01/29 00:19:49;;;;;;;1.40;0.52;;;7.20;99.90;;;;;;4976570;28;20704;-73
2021/01/29 00:22:14;;;;;;;0.43;0.43;;;7.20;99.90;;;;;;4978715;28;20391;-73
2021/01/29 00:24:40;;;;;;;0.50;0.50;;;7.30;99.90;;;;;;5014026;28;20105;-74
2021/01/29 00:27:06;;;;;;;2.70;0.50;;;7.20;99.90;;;;;;4996596;28;20030;-74
2021/01/29 00:29:32;;;;;;;0.50;0.50;;;7.30;99.90;;;;;;4996852;28;20370;-74
2021/01/29 00:31:58;;;;;;;2.88;1.75;;;7.30;99.90;;;;;;5013798;28;20041;-73
2021/01/29 00:34:25;;;;;;;0.77;0.77;;;7.30;99.90;;;;;;4996449;28;20029;-74
2021/01/29 00:36:51;;;;;;;0.57;0.57;;;7.30;99.90;;;;;;4995954;28;20065;-74
2021/01/29 00:39:17;;;;;;;0.38;0.38;;;7.20;99.90;;;;;;4979923;28;20037;-74
2021/01/29 00:41:42;;;;;;;0.50;0.40;;;7.20;99.90;;;;;;4995960;28;20022;-74
2021/01/29 00:44:08;;;;;;;0.30;0.30;;;7.20;99.90;;;;;;4996161;28;20026;-74
2021/01/29 00:46:34;;;;;;;0.35;0.35;;;7.10;99.90;;;;;;5013529;28;20025;-73
2021/01/29 00:49:00;;;;;;;0.32;0.30;;;7.10;99.90;;;;;;5013868;28;20026;-74
2021/01/29 00:51:25;;;;;;;0.85;0.55;;;7.10;99.90;;;;;;5013578;28;20104;-74
2021/01/29 00:53:51;;;;;;;2.42;0.45;;;7.10;99.90;;;;;;5013610;28;20037;-74
2021/01/29 00:56:17;;;;;;;0.77;0.52;;;7.10;99.90;;;;;;4996087;28;20673;-74
2021/01/29 00:58:42;;;;;;;0.30;0.30;;;7.10;99.90;;;;;;5014079;28;20095;-74
2021/01/29 01:01:08;;;;;;;1.88;0.43;;;7.10;99.90;;;;;;5014275;28;20018;-73
2021/01/29 01:03:34;;;;;;;0.40;0.40;;;7.10;99.90;;;;;;5014116;28;20033;-74
2021/01/29 01:06:00;;;;;;;0.73;0.60;;;7.10;99.90;;;;;;5013762;28;20034;-72
2021/01/29 01:08:26;;;;;;;0.43;0.43;;;7.10;99.90;;;;;;4995953;28;20080;-74
2021/01/29 01:10:52;;;;;;;0.80;0.70;;;7.00;99.90;;;;;;4995890;28;20108;-74
2021/01/29 01:13:18;;;;;;;0.20;0.20;;;7.00;99.90;;;;;;4995631;28;20109;-74
2021/01/29 01:15:44;;;;;;;0.35;0.35;;;7.00;99.90;;;;;;5013302;28;20397;-73
2021/01/29 01:18:09;;;;;;;1.80;0.45;;;7.00;99.90;;;;;;5012837;28;20549;-74
2021/01/29 01:20:36;;;;;;;0.30;0.30;;;7.00;99.90;;;;;;5013305;28;20022;-74
2021/01/29 01:23:02;;;;;;;0.55;0.30;;;7.00;99.90;;;;;;5013064;28;20029;-74
2021/01/29 01:25:27;;;;;;;0.20;0.20;;;7.00;99.90;;;;;;5013032;28;20144;-74
2021/01/29 01:27:55;;;;;;;0.40;0.40;;;7.00;99.90;;;;;;4995589;28;20100;-74
2021/01/29 01:30:24;;;;;;;5.38;0.30;;;7.00;99.90;;;;;;5013065;28;20121;-73
2021/01/29 01:32:50;;;;;;;0.57;0.40;;;7.00;99.90;;;;;;4994373;28;20497;-74
2021/01/29 01:35:18;;;;;;;0.30;0.30;;;6.90;99.90;;;;;;5012893;28;20022;-74
2021/01/29 01:37:44;;;;;;;0.30;0.30;;;6.90;99.90;;;;;;5012825;28;20037;-73
2021/01/29 01:40:11;;;;;;;0.30;0.30;;;6.90;99.90;;;;;;4995204;28;20022;-73
2021/01/29 01:42:37;;;;;;;0.20;0.20;;;6.80;99.90;;;;;;4995161;28;20053;-74
2021/01/29 01:45:25;;;;;;;0.55;0.40;;;6.80;99.90;;;;;;5012516;28;20049;-74
2021/01/29 01:47:54;;;;;;;1.67;0.40;;;6.70;99.90;;;;;;5012747;28;20137;-73
2021/01/29 01:50:31;;;;;;;0.55;0.35;;;6.70;99.90;;;;;;4994878;28;20116;-74
2021/01/29 01:53:01;;;;;;;0.40;0.40;;;6.60;99.90;;;;;;5007708;23;20052;-74
2021/01/29 01:55:31;;;;;;;0.60;0.50;;;6.60;99.90;;;;;;5012003;28;20028;-75
2021/01/29 01:57:59;;;;;;;0.52;0.30;;;6.60;99.90;;;;;;4995120;28;20032;-74
2021/01/29 02:00:31;;;;;;;1.33;0.40;;;6.50;99.90;;;;;;5012620;28;20021;-74
2021/01/29 02:03:00;;;;;;;;;;;6.50;99.90;;;;;;4995307;28;20034;-74
2021/01/29 02:05:30;;;;;;;0.50;0.50;;;6.50;99.90;;;;;;5012013;28;19910;-74
2021/01/29 02:08:03;;;;;;;0.50;0.40;;;6.50;99.90;;;;;;4994891;28;20026;-74
2021/01/29 02:10:30;;;;;;;1.45;0.30;;;6.50;99.90;;;;;;5012141;28;20509;-74
2021/01/29 02:12:57;;;;;;;0.30;0.30;;;6.40;99.90;;;;;;5012246;28;20060;-74
2021/01/29 02:15:25;;;;;;;0.38;0.38;;;6.40;99.90;;;;;;5011789;28;20022;-74
2021/01/29 02:18:10;;;;;;;0.35;0.35;;;6.40;99.90;;;;;;5012196;28;20073;-74
2021/01/29 02:21:00;;;;;;;0.57;0.40;;;6.40;99.90;;;;;;5012077;28;20022;-74
2021/01/29 02:23:29;;;;;;;0.45;0.45;;;6.40;99.90;;;;;;5012565;28;20462;-74
2021/01/29 02:26:17;;;;;;;0.88;0.38;;;6.40;99.90;;;;;;4994111;28;20482;-74
2021/01/29 02:29:13;;;;;;;1.20;0.30;;;6.40;99.90;;;;;;5011996;28;20025;-74
2021/01/29 02:31:57;;;;;;;0.75;0.40;;;6.40;99.90;;;;;;5011737;28;20504;-74
2021/01/29 02:34:26;;;;;;;0.50;0.50;;;6.50;99.90;;;;;;5011913;28;20026;-74
2021/01/29 02:37:10;;;;;;;0.35;0.35;;;6.50;99.90;;;;;;4993995;28;20084;-74
2021/01/29 02:39:39;;;;;;;0.57;0.50;;;6.60;99.90;;;;;;5011664;28;20312;-74
2021/01/29 02:42:28;;;;;;;0.40;0.40;;;6.60;99.90;;;;;;5011534;28;20029;-74
2021/01/29 02:45:45;;;;;;;0.45;0.45;;;6.60;99.90;;;;;;5011565;28;20029;-74
2021/01/29 02:48:29;;;;;;;1.23;0.57;;;6.50;99.90;;;;;;4968534;28;20042;-74
2021/01/29 02:51:07;;;;;;;3.08;0.60;;;6.60;99.90;;;;;;5011639;28;20030;-74
2021/01/29 02:53:41;;;;;;;1.65;0.30;;;6.60;99.90;;;;;;5011402;28;20026;-74
2021/01/29 02:56:30;;;;;;;1.10;0.85;;;6.60;99.90;;;;;;5011120;28;20033;-74
2021/01/29 02:59:21;;;;;;;3.50;0.47;;;6.70;99.90;;;;;;5011505;28;20497;-74
2021/01/29 03:01:59;;;;;;;0.90;0.47;;;6.70;99.90;;;;;;5011112;28;20049;-74
2021/01/29 03:04:30;;;;;;;0.40;0.40;;;6.70;99.90;;;;;;5011406;28;20124;-74
2021/01/29 03:07:13;;;;;;;1.33;0.40;;;6.80;99.90;;;;;;5011112;28;20022;-74
2021/01/29 03:09:51;;;;;;;1.35;0.50;;;6.80;99.90;;;;;;4993588;28;20400;-74
2021/01/29 03:12:44;;;;;;;1.15;0.30;;;6.80;99.90;;;;;;4977167;28;20023;-74
2021/01/29 03:15:22;;;;;;;1.77;0.50;;;6.80;99.90;;;;;;4993617;28;20053;-74
2021/01/29 03:18:14;;;;;;;0.40;0.40;;;6.80;99.90;;;;;;4993449;28;20030;-74
2021/01/29 03:21:01;;;;;;;1.85;0.57;;;6.80;99.90;;;;;;4977406;28;20466;-74
2021/01/29 03:23:36;;;;;;;2.15;0.40;;;6.80;99.90;;;;;;4993325;28;20079;-74
2021/01/29 03:26:06;;;;;;;0.57;0.50;;;6.70;99.90;;;;;;5009640;28;20029;-74
2021/01/29 03:28:39;;;;;;;0.38;0.38;;;6.70;99.90;;;;;;5010700;28;20065;-74
2021/01/29 03:31:08;;;;;;;0.47;0.47;;;6.70;99.90;;;;;;5009684;28;20048;-74
2021/01/29 03:33:38;;;;;;;0.50;0.50;;;6.70;99.90;;;;;;4993109;28;20030;-74
2021/01/29 03:36:07;;;;;;;0.50;0.50;;;6.70;99.90;;;;;;5011277;28;20061;-74
2021/01/29 03:38:36;;;;;;;2.30;0.70;;;6.70;99.90;;;;;;4993135;28;20026;-74
2021/01/29 03:41:31;;;;;;;0.98;0.40;;;6.70;99.90;;;;;;4993237;28;20498;-74
2021/01/29 03:44:06;;;;;;;0.68;0.50;;;6.70;99.90;;;;;;4993103;28;20037;-74
2021/01/29 03:46:37;;;;;;;0.43;0.43;;;6.70;99.90;;;;;;5010787;28;20033;-74
2021/01/29 03:49:32;;;;;;;0.50;0.50;;;6.60;99.90;;;;;;4993004;28;20026;-74
2021/01/29 03:52:26;;;;;;;0.60;0.50;;;6.60;99.90;;;;;;4976894;28;20040;-74
2021/01/29 03:55:12;;;;;;;3.10;0.50;;;6.60;99.90;;;;;;4992648;28;20053;-74
2021/01/29 03:57:43;;;;;;;0.63;0.63;;;6.50;99.90;;;;;;5013654;28;20105;-74
2021/01/29 04:00:46;;;;;;;3.42;1.58;;;6.50;99.90;;;;;;5014448;28;20076;-74
2021/01/29 04:03:15;;;;;;;4.10;2.03;;;6.50;99.90;;;;;;5014670;28;20358;-74
2021/01/29 04:06:07;;;;;;;1.05;0.85;;;6.50;99.90;;;;;;4996579;28;20073;-74
2021/01/29 04:08:46;;;;;;;1.08;0.70;;;6.50;99.90;;;;;;5014595;28;20049;-74
2021/01/29 04:11:20;;;;;;;1.00;0.77;;;6.50;99.90;;;;;;4996757;28;20385;-74
2021/01/29 04:13:53;;;;;;;0.68;0.40;;;6.50;99.90;;;;;;5014518;28;20030;-74
2021/01/29 04:16:26;;;;;;;0.40;0.40;;;6.50;99.90;;;;;;5014297;28;20025;-74
2021/01/29 04:18:55;;;;;;;1.17;0.60;;;6.60;99.90;;;;;;5014653;28;20088;-74
2021/01/29 04:21:38;;;;;;;0.60;0.60;;;6.60;99.90;;;;;;5014052;28;20017;-74
2021/01/29 04:24:04;;;;;;;2.58;0.60;;;6.50;99.90;;;;;;4996739;28;20113;-74
2021/01/29 04:26:36;;;;;;;4.30;0.40;;;6.50;99.90;;;;;;5014408;28;20124;-74
2021/01/29 04:29:14;;;;;;;0.50;0.30;;;6.60;99.90;;;;;;4996853;28;20050;-74
2021/01/29 04:31:42;;;;;;;1.23;0.63;;;6.60;99.90;;;;;;5014080;28;20022;-74
2021/01/29 04:34:13;;;;;;;0.50;0.50;;;6.70;99.90;;;;;;5014131;28;20451;-74
2021/01/29 04:36:41;;;;;;;1.40;0.55;;;6.70;99.90;;;;;;5014276;28;20022;-74
2021/01/29 04:39:14;;;;;;;0.68;0.60;;;6.70;99.90;;;;;;5012847;28;20050;-74
2021/01/29 04:42:04;;;;;;;1.38;0.47;;;6.70;99.90;;;;;;5013776;28;20205;-74
2021/01/29 04:44:52;;;;;;;5.80;0.82;;;6.80;99.90;;;;;;5014128;28;20030;-74
2021/01/29 04:47:35;;;;;;;2.97;0.68;;;6.80;99.90;;;;;;5013868;28;20026;-74
2021/01/29 04:50:29;;;;;;;0.40;0.40;;;6.80;99.90;;;;;;5012699;28;20026;-74
2021/01/29 04:53:33;;;;;;;3.13;0.73;;;6.80;99.90;;;;;;5013506;28;20061;-74
2021/01/29 04:56:12;;;;;;;0.50;0.50;;;6.70;99.90;;;;;;5013541;28;20029;-74
2021/01/29 04:58:51;;;;;;;1.55;0.47;;;6.80;99.90;;;;;;4996286;28;20038;-74
2021/01/29 05:01:36;;;;;;;2.85;0.50;;;6.70;99.90;;;;;;4995853;28;20535;-74
2021/01/29 05:04:17;;;;;;;0.77;0.50;;;6.80;99.90;;;;;;5013698;28;20478;-74
2021/01/29 05:06:57;;;;;;;2.95;0.70;;;6.70;99.90;;;;;;4995684;28;20493;-74
2021/01/29 05:09:42;;;;;;;2.03;0.88;;;6.70;99.90;;;;;;5012219;28;20022;-74
2021/01/29 05:12:24;;;;;;;1.25;0.60;;;6.70;99.90;;;;;;4995712;28;20057;-74
2021/01/29 05:14:53;;;;;;;7.38;0.82;;;6.70;99.90;;;;;;5013218;28;20497;-74
2021/01/29 05:17:40;;;;;;;2.85;0.80;;;6.60;99.90;;;;;;5013006;28;20029;-74
2021/01/29 05:20:43;;;;;;;2.00;0.55;;;6.70;99.90;;;;;;5013116;28;20088;-74
2021/01/29 05:23:14;;;;;;;3.58;0.70;;;6.80;99.90;;;;;;4979191;28;20044;-74
2021/01/29 05:25:55;;;;;;;1.80;0.80;;;6.70;99.90;;;;;;5013064;28;20470;-74
2021/01/29 05:28:38;;;;;;;0.77;0.40;;;6.70;99.90;;;;;;5011591;28;20169;-74
2021/01/29 05:31:25;;;;;;;0.55;0.50;;;6.70;99.90;;;;;;5011713;28;20390;-74
2021/01/29 05:34:16;;;;;;;4.82;1.45;;;6.60;99.90;;;;;;4995136;28;20050;-74
2021/01/29 05:37:03;;;;;;;1.80;1.35;;;6.60;99.90;;;;;;5012916;28;20022;-74
2021/01/29 05:39:41;;;;;;;6.95;1.00;;;6.70;99.90;;;;;;4995051;28;20033;-74
2021/01/29 05:42:18;;;;;;;8.35;0.80;;;6.60;99.90;;;;;;4995311;28;20117;-74
2021/01/29 05:45:11;;;;;;;2.45;0.80;;;6.60;99.90;;;;;;4994691;28;20714;-74
2021/01/29 05:47:49;;;;;;;1.00;0.80;;;6.60;99.90;;;;;;4995497;28;20033;-74
2021/01/29 05:50:27;;;;;;;3.17;0.88;;;6.50;99.90;;;;;;5012691;28;20126;-74
2021/01/29 05:53:17;;;;;;;0.98;0.70;;;6.50;99.90;;;;;;5012592;28;20112;-74
2021/01/29 05:55:59;;;;;;;1.58;0.82;;;6.40;99.90;;;;;;5012472;28;20032;-74
2021/01/29 05:58:43;;;;;;;;;;;6.20;99.90;;;;;;4995339;28;20081;-74
2021/01/29 06:01:39;;;;;;;1.42;0.80;;;6.20;99.90;;;;;;4978626;28;20004;-74
2021/01/29 06:04:07;;;;;;;1.40;0.90;;;6.10;99.90;;;;;;5012101;28;20021;-74
2021/01/29 06:07:10;;;;;;;0.95;0.82;;;6.10;99.90;;;;;;4978630;28;20037;-74
2021/01/29 06:09:55;;;;;;;0.98;0.88;;;6.10;99.90;;;;;;4978487;28;20025;-74
2021/01/29 06:12:58;;;;;;;3.70;0.98;;;6.10;99.90;;;;;;5012549;28;20034;-74
2021/01/29 06:15:52;;;;;;;2.05;0.80;;;6.20;99.90;;;;;;4994552;28;20025;-74
2021/01/29 06:18:35;;;;;;;2.17;0.88;;;6.10;99.90;;;;;;4994643;28;20396;-74
2021/01/29 06:21:23;;;;;;;2.13;1.10;;;6.00;99.90;;;;;;4994070;28;20018;-74
2021/01/29 06:24:15;;;;;;;1.52;0.90;;;6.00;99.90;;;;;;4994604;28;20051;-74
2021/01/29 06:27:02;;;;;;;1.75;0.80;;;6.10;99.90;;;;;;5011887;28;20084;-74
2021/01/29 06:30:01;;;;;;;6.68;1.38;;;6.00;99.90;;;;;;5012148;28;20038;-74
2021/01/29 06:32:35;;;;;;;1.38;0.70;;;6.10;99.90;;;;;;5012402;28;20024;-74
2021/01/29 06:35:17;;;;;;;2.85;0.75;;;6.00;99.90;;;;;;4992581;28;20022;-74
2021/01/29 06:38:10;;;;;;;3.67;0.80;;;5.90;99.90;;;;;;5011765;28;20024;-74
2021/01/29 06:41:01;;;;;;;2.38;1.30;;;5.90;99.90;;;;;;5011264;28;20436;-74
2021/01/29 06:43:44;;;;;;;6.35;3.30;;;6.00;99.90;;;;;;5011597;28;20022;-74
2021/01/29 06:46:43;;;;;;;6.53;3.67;;;5.90;99.90;;;;;;5011275;28;20064;-74
2021/01/29 06:49:46;;;;;;;3.60;2.38;;;5.90;99.90;;;;;;5011335;28;20028;-74
2021/01/29 06:52:49;;;;;;;4.38;1.77;;;5.90;99.90;;;;;;4993250;28;20549;-74
2021/01/29 06:55:42;;;;;;;4.22;1.25;;;5.90;99.90;;;;;;5010964;28;20034;-74
2021/01/29 06:58:31;;;;;;;2.03;1.40;;;5.80;99.90;;;;;;4991205;28;20475;-74
2021/01/29 07:01:19;;;;;;;2.63;1.90;;;5.80;99.90;;;;;;4962403;28;20089;-74
2021/01/29 07:04:24;;;;;;;3.33;0.90;;;5.80;99.90;;;;;;4974096;28;20118;-74
2021/01/29 07:07:25;;;;;;;5.25;1.27;;;5.80;99.90;;;;;;4938110;28;20051;-74
2021/01/29 07:09:56;;;;;;;1.05;0.85;;;5.80;99.90;;;;;;5000035;28;20379;-74
2021/01/29 07:13:12;;;;;;;1.52;1.00;;;5.80;99.90;;;;;;5009791;28;20385;-74
2021/01/29 07:16:01;;;;;;;1.20;0.80;;;5.80;99.90;;;;;;4957238;28;20038;-74
2021/01/29 07:18:49;;;;;;;5.10;1.67;;;5.80;99.90;;;;;;4993208;28;20096;-74
2021/01/29 07:21:48;;;;;;;2.05;1.55;;;5.90;99.90;;;;;;5010290;28;20061;-74
2021/01/29 07:24:41;;;;;;;45.45;3.88;;;5.90;99.90;;;;;;4993008;28;20490;-74
2021/01/29 07:27:28;;;;;;;4.43;1.50;;;6.10;99.90;;;;;;5009448;28;20022;-74
2021/01/29 07:30:18;;;;;;;23.52;1.77;;;6.20;99.90;;;;;;4992922;28;20026;-74
2021/01/29 07:32:49;;;;;;;47.10;4.72;;;6.40;99.90;;;;;;5010181;28;20101;-74
2021/01/29 07:35:36;;;;;;;35.97;2.58;;;6.50;99.90;;;;;;5010548;28;20025;-74
2021/01/29 07:38:35;;;;;;;114.85;7.63;;;6.50;99.90;;;;;;5009932;28;20056;-74
2021/01/29 07:41:36;;;;;;;34.72;3.20;;;6.60;99.90;;;;;;5008927;28;20029;-74
2021/01/29 07:44:22;;;;;;;20.55;1.70;;;6.70;99.90;;;;;;4963245;28;20052;-74
2021/01/29 07:46:56;;;;;;;60.97;5.72;;;6.70;99.90;;;;;;4979727;28;20050;-74
2021/01/29 07:49:44;;;;;;;79.45;4.05;;;6.90;99.90;;;;;;4993075;28;20555;-74
2021/01/29 07:52:28;;;;;;;18.70;2.95;;;6.90;99.90;;;;;;5010651;28;20049;-74
2021/01/29 07:55:23;;;;;;;22.30;3.75;;;7.00;99.90;;;;;;4996017;28;20081;-74
2021/01/29 07:58:39;;;;;;;13.98;1.02;;;7.10;99.90;;;;;;4983538;28;20069;-74
2021/01/29 08:01:08;;;;;;;9.60;1.17;;;7.10;99.90;;;;;;4934002;28;20390;-74
2021/01/29 08:04:05;;;;;;;2.22;1.13;;;7.20;99.90;;;;;;4997886;28;20022;-74
2021/01/29 08:06:34;;;;;;;5.38;0.95;;;7.20;99.90;;;;;;4994278;28;20449;-74
2021/01/29 08:09:14;;;;;;;65.40;4.15;;;7.20;99.90;;;;;;4980387;28;20489;-74
2021/01/29 08:11:46;;;;;;;7.45;0.98;;;7.30;99.90;;;;;;4995846;28;20026;-74
2021/01/29 08:14:24;;;;;;;3.10;0.75;;;7.30;99.90;;;;;;4995588;28;20030;-74
2021/01/29 08:17:16;;;;;;;0.65;0.60;;;7.30;99.90;;;;;;5004474;28;20026;-74
2021/01/29 08:20:02;;;;;;;3.50;0.73;;;7.30;99.90;;;;;;4980730;28;20054;-74
2021/01/29 08:23:04;;;;;;;2.85;0.70;;;7.40;99.90;;;;;;4989400;28;20137;-74
2021/01/29 08:25:57;;;;;;;0.60;0.60;;;7.40;99.90;;;;;;4991422;28;20482;-74
2021/01/29 08:28:34;;;;;;;0.70;0.70;;;7.40;99.90;;;;;;4987069;28;20085;-73
2021/01/29 08:31:39;;;;;;;1.17;0.50;;;7.40;99.90;;;;;;4991433;28;20027;-74
2021/01/29 08:34:32;;;;;;;2.88;0.50;;;7.50;99.90;;;;;;4991370;28;20116;-74
2021/01/29 08:37:07;;;;;;;2.60;0.60;;;7.60;99.90;;;;;;4987045;28;20026;-74
2021/01/29 08:39:47;;;;;;;1.25;0.43;;;7.60;99.90;;;;;;5000179;28;20446;-75
2021/01/29 08:42:36;;;;;;;4.45;1.00;;;7.70;99.90;;;;;;4988613;28;20030;-75
2021/01/29 08:45:13;;;;;;;3.88;1.00;;;7.80;99.90;;;;;;5012759;28;20026;-74
2021/01/29 08:48:07;;;;;;;2.13;0.45;;;7.80;99.90;;;;;;4994952;28;20076;-74
2021/01/29 08:50:51;;;;;;;1.40;0.55;;;7.70;99.90;;;;;;5012260;28;20057;-74
2021/01/29 08:53:29;;;;;;;1.65;1.10;;;7.70;99.90;;;;;;5007536;28;20113;-73
2021/01/29 08:56:04;;;;;;;1.15;0.80;;;7.80;99.90;;;;;;4997096;28;20026;-73
2021/01/29 08:58:43;;;;;;;0.73;0.70;;;7.70;99.90;;;;;;4974703;28;20479;-74
2021/01/29 09:01:13;;;;;;;0.40;0.40;;;7.60;99.90;;;;;;4993282;28;20018;-74
2021/01/29 09:03:51;;;;;;;0.82;0.40;;;7.60;99.90;;;;;;4993569;28;20504;-74
2021/01/29 09:06:25;;;;;;;1.75;0.63;;;7.60;99.90;;;;;;5010633;28;20521;-74
2021/01/29 09:09:03;;;;;;;178.50;9.68;;;7.60;99.90;;;;;;4993702;28;20037;-74
2021/01/29 09:11:41;;;;;;;17.25;1.45;;;7.50;99.90;;;;;;5010914;28;20034;-73
2021/01/29 09:14:15;;;;;;;24.30;2.22;;;7.50;99.90;;;;;;4993213;28;20022;-74
2021/01/29 09:16:43;;;;;;;6.88;1.05;;;7.50;99.90;;;;;;4976827;28;20509;-74
2021/01/29 09:19:14;;;;;;;12.55;0.82;;;7.40;99.90;;;;;;4998294;28;20042;-74
2021/01/29 09:21:58;;;;;;;21.52;1.80;;;7.40;99.90;;;;;;4990963;28;20438;-73
2021/01/29 09:24:36;;;;;;;19.70;1.10;;;7.30;99.90;;;;;;5010800;28;20034;-73
2021/01/29 09:27:04;;;;;;;45.72;2.75;;;7.30;99.90;;;;;;4989889;28;20033;-74
2021/01/29 09:29:34;;;;;;;9.32;0.93;;;7.30;99.90;;;;;;4991497;28;20027;-74
2021/01/29 09:32:08;;;;;;;8.95;1.02;;;7.30;99.90;;;;;;4991238;28;20080;-74
2021/01/29 09:34:39;;;;;;;6.45;0.60;;;7.30;99.90;;;;;;5004611;28;20027;-73
2021/01/29 09:37:09;;;;;;;2.70;0.45;;;7.20;99.90;;;;;;4991348;28;20042;-74
2021/01/29 09:40:06;;;;;;;2.28;0.77;;;7.20;99.90;;;;;;5004307;28;20033;-74
2021/01/29 09:42:47;;;;;;;5.18;0.60;;;7.20;99.90;;;;;;5006795;28;20113;-74
2021/01/29 09:45:20;;;;;;;3.95;0.77;;;7.20;99.90;;;;;;4989034;28;20022;-74
2021/01/29 09:47:48;;;;;;;0.80;0.75;;;7.20;99.90;;;;;;5010710;28;20041;-74
2021/01/29 09:50:23;;;;;;;0.70;0.60;;;7.30;99.90;;;;;;5010126;28;20505;-74
2021/01/29 09:53:05;;;;;;;0.50;0.40;;;7.40;99.90;;;;;;4972605;28;598000;-74
2021/01/29 09:55:40;;;;;;;1.45;1.10;;;7.40;99.90;;;;;;4992405;28;20364;-73
2021/01/29 09:58:32;;;;;;;2.00;0.55;;;7.50;99.90;;;;;;5011697;28;20534;-74
2021/01/29 10:01:09;;;;;;;0.90;0.63;;;7.50;99.90;;;;;;5011008;28;20548;-75
2021/01/29 10:03:50;;;;;;;0.55;0.47;;;7.60;99.90;;;;;;5012400;28;20037;-74
2021/01/29 10:06:25;;;;;;;0.80;0.70;;;7.70;99.90;;;;;;5008859;28;20202;-73
2021/01/29 10:08:59;;;;;;;0.43;0.30;;;7.70;99.90;;;;;;4991836;28;20022;-74
2021/01/29 10:11:47;;;;;;;1.95;0.70;;;7.70;99.90;;;;;;4997629;28;20026;-74
2021/01/29 10:14:43;;;;;;;0.60;0.45;;;7.80;99.90;;;;;;5010856;28;20501;-74
2021/01/29 10:17:19;;;;;;;1.27;0.60;;;7.70;99.90;;;;;;5010773;28;20030;-75
2021/01/29 10:19:59;;;;;;;0.73;0.60;;;7.70;99.90;;;;;;4977496;28;20670;-75
2021/01/29 10:22:58;;;;;;;1.45;1.00;;;7.80;99.90;;;;;;5011019;28;20435;-74
2021/01/29 10:25:37;;;;;;;0.75;0.60;;;7.90;99.90;;;;;;5008695;28;20053;-75
2021/01/29 10:28:17;;;;;;;17.33;1.00;;;7.90;99.90;;;;;;4990280;28;20026;-74
2021/01/29 10:30:57;;;;;;;0.57;0.38;;;8.00;99.90;;;;;;5003215;28;20040;-74
2021/01/29 10:33:33;;;;;;;1.38;0.60;;;8.20;99.90;;;;;;5011019;28;20025;-75
2021/01/29 10:36:31;;;;;;;0.40;0.40;;;8.40;99.90;;;;;;5010374;28;20030;-75
2021/01/29 10:39:02;;;;;;;0.50;0.45;;;8.60;99.90;;;;;;4968158;28;20037;-74
2021/01/29 10:41:46;;;;;;;0.73;0.50;;;9.20;99.90;;;;;;4992983;28;20050;-76
2021/01/29 10:44:21;;;;;;;0.77;0.32;;;9.90;96.10;;;;;;5010940;28;20026;-75
2021/01/29 10:47:17;;;;;;;0.82;0.60;;;10.20;93.10;;;;;;5010263;28;20113;-75
2021/01/29 10:50:17;;;;;;;0.45;0.45;;;10.10;92.10;;;;;;4991721;28;20058;-74
2021/01/29 10:53:04;;;;;;;0.70;0.60;;;9.70;93.30;;;;;;4982586;28;20050;-74
2021/01/29 10:55:39;;;;;;;1.33;0.75;;;10.00;92.60;;;;;;4990869;28;20062;-75
2021/01/29 10:58:30;;;;;;;1.05;0.75;;;10.20;91.40;;;;;;5005711;28;20030;-74
2021/01/29 11:00:59;;;;;;;0.32;0.32;;;10.20;91.80;;;;;;4990909;28;20382;-75
2021/01/29 11:03:50;;;;;;;1.92;0.40;;;10.00;91.80;;;;;;5010090;28;20025;-75
2021/01/29 11:06:21;;;;;;;0.20;0.20;;;9.70;92.90;;;;;;4992910;28;20038;-75
2021/01/29 11:08:51;;;;;;;0.30;0.30;;;9.60;93.00;;;;;;5006456;28;20034;-74
2021/01/29 11:11:40;;;;;;;1.13;0.45;;;9.20;93.70;;;;;;4992967;28;20033;-75
2021/01/29 11:14:22;;;;;;;1.13;0.40;;;9.00;95.60;;;;;;5007596;28;20065;-75
2021/01/29 11:17:12;;;;;;;1.15;0.65;;;8.80;96.70;;;;;;5005799;28;20026;-75
2021/01/29 11:19:46;;;;;;;0.50;0.50;;;9.00;97.60;;;;;;4981716;28;20042;-75
2021/01/29 11:22:22;;;;;;;0.30;0.30;;;9.20;96.70;;;;;;4990728;28;20378;-75
2021/01/29 11:25:05;;;;;;;0.55;0.55;;;9.40;96.10;;;;;;4999920;28;20050;-75
2021/01/29 11:27:43;;;;;;;0.50;0.40;;;9.50;95.00;;;;;;5007308;28;20092;-75
2021/01/29 11:30:29;;;;;;;1.02;0.60;;;9.90;94.20;;;;;;5000200;28;20025;-75
2021/01/29 11:32:57;;;;;;;2.85;0.40;;;11.00;91.30;;;;;;5009906;28;20025;-75
2021/01/29 11:36:03;;;;;;;0.60;0.60;;;11.10;88.80;;;;;;5009690;28;20122;-75
2021/01/29 11:38:38;;;;;;;0.40;0.40;;;10.90;88.80;;;;;;5007442;28;20489;-75
2021/01/29 11:41:23;;;;;;;5.68;1.70;;;10.60;90.40;;;;;;4996985;28;20083;-75
2021/01/29 11:44:06;;;;;;;0.40;0.40;;;11.50;86.30;;;;;;5004898;28;20495;-75
2021/01/29 11:47:05;;;;;;;0.40;0.40;;;12.10;83.00;;;;;;4992104;28;20386;-75
2021/01/29 11:49:37;;;;;;;0.32;0.32;;;12.20;80.60;;;;;;5003469;28;20018;-75
2021/01/29 11:52:22;;;;;;;;;;;11.80;81.30;;;;;;4978705;28;20390;-75
2021/01/29 11:54:54;;;;;;;0.82;0.32;;;11.30;81.70;;;;;;5005792;28;19944;-75
2021/01/29 11:57:34;;;;;;;2.85;0.65;;;11.30;82.70;;;;;;5009411;28;20022;-75
2021/01/29 12:00:33;;;;;;;3.20;0.52;;;11.50;80.40;;;;;;5004587;28;20036;-75
2021/01/29 12:03:10;;;;;;;0.95;0.60;;;10.70;81.80;;;;;;5009652;28;20014;-75
2021/01/29 12:05:50;;;;;;;0.73;0.40;;;11.10;80.20;;;;;;5003686;28;20065;-75
2021/01/29 12:08:28;;;;;;;1.65;0.38;;;11.80;79.30;;;;;;5005887;28;20080;-75
2021/01/29 12:11:01;;;;;;;0.50;0.50;;;11.80;78.20;;;;;;4991414;28;20026;-76
2021/01/29 12:13:29;;;;;;;1.23;0.50;;;11.80;76.90;;;;;;5005625;28;20041;-75
2021/01/29 12:15:59;;;;;;;1.45;0.88;;;12.20;76.50;;;;;;5010002;28;20621;-75
2021/01/29 12:18:28;;;;;;;0.47;0.30;;;11.70;76.60;;;;;;5007908;28;20037;-75
2021/01/29 12:21:29;;;;;;;5.68;0.88;;;11.40;77.70;;;;;;4977504;28;20098;-75
2021/01/29 12:24:31;;;;;;;1.52;0.50;;;10.90;78.00;;;;;;5013389;28;20152;-75
2021/01/29 12:27:21;;;;;;;2.78;0.40;;;10.50;80.60;;;;;;5009214;28;20052;-75
2021/01/29 12:30:05;;;;;;;1.85;0.40;;;10.10;82.10;;;;;;5013353;28;20117;-75
2021/01/29 12:32:45;;;;;;;0.43;0.40;;;9.90;81.90;;;;;;5003605;28;20485;-75
2021/01/29 12:35:29;;;;;;;2.38;0.70;;;9.70;83.40;;;;;;4995626;28;20088;-75
2021/01/29 12:38:07;;;;;;;0.65;0.50;;;9.60;84.40;;;;;;4995173;28;20425;-75
2021/01/29 12:40:44;;;;;;;1.08;0.50;;;9.40;85.60;;;;;;5002607;28;20053;-75
2021/01/29 12:43:33;;;;;;;3.30;0.60;;;9.10;86.90;;;;;;5012800;28;20022;-75
2021/01/29 12:46:24;;;;;;;5.25;0.77;;;8.90;88.10;;;;;;4994792;28;20045;-75
2021/01/29 12:49:12;;;;;;;0.30;0.30;;;8.70;88.00;;;;;;4993378;28;20022;-75
2021/01/29 12:52:22;;;;;;;1.33;0.40;;;8.30;89.20;;;;;;5005473;28;20831;-75
2021/01/29 12:55:10;;;;;;;0.30;0.30;;;8.00;90.80;;;;;;4983919;28;20259;-75
2021/01/29 12:57:36;;;;;;;0.35;0.30;;;7.70;91.60;;;;;;5001648;28;20034;-75
2021/01/29 13:00:26;;;;;;;0.30;0.30;;;7.80;92.50;;;;;;4998659;28;20466;-75
2021/01/29 13:02:52;;;;;;;0.95;0.60;;;7.60;92.70;;;;;;4994537;28;20037;-75
2021/01/29 13:06:08;;;;;;;0.65;0.47;;;7.40;93.70;;;;;;5003171;28;20456;-74
2021/01/29 13:09:00;;;;;;;0.85;0.35;;;7.30;95.30;;;;;;4978556;28;20053;-75
2021/01/29 13:11:32;;;;;;;0.40;0.40;;;7.50;97.40;;;;;;4982591;28;20041;-75
2021/01/29 13:14:25;;;;;;;0.65;0.50;;;7.40;98.70;;;;;;5008698;28;20033;-75
2021/01/29 13:17:09;;;;;;;0.40;0.40;;;7.50;99.90;;;;;;5010632;28;20156;-75
2021/01/29 13:19:38;;;;;;;1.50;0.50;;;7.60;99.90;;;;;;4986470;28;20022;-75
2021/01/29 13:22:19;;;;;;;0.55;0.40;;;7.60;99.90;;;;;;5012055;28;20021;-75
2021/01/29 13:25:25;;;;;;;2.58;0.50;;;7.40;99.90;;;;;;5007665;28;20357;-75
2021/01/29 13:28:03;;;;;;;0.50;0.50;;;7.40;99.90;;;;;;5008479;28;20042;-75
2021/01/29 13:30:35;;;;;;;0.50;0.50;;;8.10;99.90;;;;;;5010383;28;20041;-75
2021/01/29 13:33:12;;;;;;;0.70;0.40;;;8.50;96.40;;;;;;4978559;28;20041;-77
2021/01/29 13:35:38;;;;;;;0.95;0.30;;;8.70;94.90;;;;;;5004483;28;20527;-75
2021/01/29 13:38:13;;;;;;;0.88;0.32;;;8.10;96.10;;;;;;5011768;28;20029;-75
2021/01/29 13:40:41;;;;;;;0.95;0.50;;;7.80;98.30;;;;;;5011173;28;20057;-75
2021/01/29 13:43:13;;;;;;;0.85;0.57;;;7.40;99.90;;;;;;5003735;28;20493;-75
2021/01/29 13:45:39;;;;;;;4.22;0.63;;;7.20;99.90;;;;;;4992609;28;20026;-75
2021/01/29 13:48:19;;;;;;;1.05;0.70;;;7.20;99.90;;;;;;5011479;28;20032;-75
2021/01/29 13:50:51;;;;;;;2.38;0.60;;;7.40;99.90;;;;;;4994298;28;20030;-75
2021/01/29 13:53:29;;;;;;;0.60;0.60;;;7.30;99.90;;;;;;5001294;28;20034;-75
2021/01/29 13:56:04;;;;;;;1.30;0.68;;;7.10;99.90;;;;;;5011467;28;20057;-75
2021/01/29 13:58:52;;;;;;;0.90;0.50;;;7.10;99.90;;;;;;5001618;28;20026;-75
2021/01/29 14:01:47;;;;;;;0.73;0.60;;;7.00;99.90;;;;;;5011694;28;20026;-75